Terminal Aerodrome Forecast
Issued by NWS Cleveland, OH

Home | Current Version | Previous Version | Text Only | Print | Product List | Glossary Off
Versions: 1 2 3 4 5 6 7 8 9 10 11 12 13 14 15 16 17 18 19 20

000
FTUS41 KCLE 151300 AAA
TAFERI
TAF AMD
KERI 151319Z 1513/1612 20005KT P6SM SCT250
     FM151500 20008KT P6SM SCT100 BKN250
     FM152000 22008KT P6SM BKN060 OVC100
     FM152200 24005KT P6SM -RA OVC035
     FM160300 27005KT 4SM -RA BR OVC015
     FM160900 29005KT P6SM OVC004=

USA.gov is the U.S. government's official web portal to all federal, state and local government web resources and services.